Startpagina
METAR-TAF:

METAR-TAF

Vliegvelden :

Armenia, Colombia

breedte: 04-30N, lengte: 075-43W, hoogte: 1204 m

Actueel weer

Dit bericht is 4 uur en het 9 minuten geleden gemaakt, om 05:00 UTC
Weinig wind
Temperatuur 18°C
Vochtigheid 94%
Druk 1019 hPa
Zicht 10 km of meer
Verspreide wolken op 2500 ft
Verspreide wolken op 10000 ft

METAR: SKAR 210500Z 00000KT 9999 SCT025 SCT100 18/17 A3008

Tijdstip: 04:09 (09:09 UTC)


TAF: ontbreekt

Waarnemingen en weersverwachtingen van meer dan 4000 vliegvelden (METAR en TAF).

De beschikbare stations zijn de gele en rode punten op de kaart.

Ga met uw muis naar het station om de naam te zien.

Klik dan om waarnemingen en weersverwachtingen te zien.

kaart wijzigen: klik op de groene knoppen met een zwart kruis om in te zoomen, op de groene knop met een streepje om uit te zoomen of op de groene pijlen voor aangrenzende kaarten.


METAR-TAF: